sensor_id;sensor_type;location;lat;lon;timestamp;P1;durP1;ratioP1;P2;durP2;ratioP2
15385;SDS011;7791;47.246;9.648;2022-11-24T00:01:29;4.60;;;2.27;;
15385;SDS011;7791;47.246;9.648;2022-11-24T00:03:57;2.73;;;1.90;;
15385;SDS011;7791;47.246;9.648;2022-11-24T00:06:24;4.00;;;2.07;;
15385;SDS011;7791;47.246;9.648;2022-11-24T00:08:51;3.83;;;2.03;;
15385;SDS011;7791;47.246;9.648;2022-11-24T00:11:19;3.87;;;1.90;;
15385;SDS011;7791;47.246;9.648;2022-11-24T00:13:48;3.20;;;2.47;;
15385;SDS011;7791;47.246;9.648;2022-11-24T00:16:15;3.27;;;2.37;;
15385;SDS011;7791;47.246;9.648;2022-11-24T00:18:43;4.43;;;2.70;;
15385;SDS011;7791;47.246;9.648;2022-11-24T00:21:14;5.20;;;3.17;;
15385;SDS011;7791;47.246;9.648;2022-11-24T00:23:43;4.17;;;2.40;;
15385;SDS011;7791;47.246;9.648;2022-11-24T00:26:11;3.30;;;2.47;;
15385;SDS011;7791;47.246;9.648;2022-11-24T00:28:38;2.97;;;2.20;;
15385;SDS011;7791;47.246;9.648;2022-11-24T00:31:15;5.90;;;2.30;;
15385;SDS011;7791;47.246;9.648;2022-11-24T00:33:42;2.50;;;1.90;;
15385;SDS011;7791;47.246;9.648;2022-11-24T00:36:07;2.97;;;2.43;;
15385;SDS011;7791;47.246;9.648;2022-11-24T00:38:33;5.37;;;2.40;;
15385;SDS011;7791;47.246;9.648;2022-11-24T00:41:00;5.03;;;2.10;;
15385;SDS011;7791;47.246;9.648;2022-11-24T00:43:26;4.10;;;2.30;;
15385;SDS011;7791;47.246;9.648;2022-11-24T00:45:53;5.80;;;2.57;;
15385;SDS011;7791;47.246;9.648;2022-11-24T00:48:21;5.93;;;2.67;;
15385;SDS011;7791;47.246;9.648;2022-11-24T00:51:01;6.63;;;3.23;;
15385;SDS011;7791;47.246;9.648;2022-11-24T00:53:28;4.10;;;3.00;;
15385;SDS011;7791;47.246;9.648;2022-11-24T00:55:55;21.80;;;7.43;;
15385;SDS011;7791;47.246;9.648;2022-11-24T00:58:22;6.73;;;3.00;;
15385;SDS011;7791;47.246;9.648;2022-11-24T01:00:49;4.00;;;2.40;;
15385;SDS011;7791;47.246;9.648;2022-11-24T01:03:16;5.33;;;2.67;;
15385;SDS011;7791;47.246;9.648;2022-11-24T01:05:44;5.07;;;2.73;;
15385;SDS011;7791;47.246;9.648;2022-11-24T01:08:11;4.90;;;2.57;;
15385;SDS011;7791;47.246;9.648;2022-11-24T01:10:37;5.63;;;2.90;;
15385;SDS011;7791;47.246;9.648;2022-11-24T01:13:04;4.30;;;2.67;;
15385;SDS011;7791;47.246;9.648;2022-11-24T01:15:30;4.73;;;3.03;;
15385;SDS011;7791;47.246;9.648;2022-11-24T01:17:58;4.70;;;3.10;;
15385;SDS011;7791;47.246;9.648;2022-11-24T01:20:24;6.27;;;3.30;;
15385;SDS011;7791;47.246;9.648;2022-11-24T01:22:52;7.57;;;3.73;;
15385;SDS011;7791;47.246;9.648;2022-11-24T01:25:17;4.50;;;3.50;;
15385;SDS011;7791;47.246;9.648;2022-11-24T01:27:44;5.93;;;3.73;;
15385;SDS011;7791;47.246;9.648;2022-11-24T01:30:13;6.20;;;3.60;;
15385;SDS011;7791;47.246;9.648;2022-11-24T01:32:39;6.50;;;3.50;;
15385;SDS011;7791;47.246;9.648;2022-11-24T01:35:10;5.03;;;2.90;;
15385;SDS011;7791;47.246;9.648;2022-11-24T01:37:37;4.93;;;3.17;;
15385;SDS011;7791;47.246;9.648;2022-11-24T01:40:05;6.90;;;3.00;;
15385;SDS011;7791;47.246;9.648;2022-11-24T01:42:42;5.27;;;2.43;;
15385;SDS011;7791;47.246;9.648;2022-11-24T01:48:01;4.70;;;2.20;;
15385;SDS011;7791;47.246;9.648;2022-11-24T01:50:29;4.33;;;2.20;;
15385;SDS011;7791;47.246;9.648;2022-11-24T01:52:56;4.30;;;2.00;;
15385;SDS011;7791;47.246;9.648;2022-11-24T01:55:24;3.13;;;2.07;;
15385;SDS011;7791;47.246;9.648;2022-11-24T01:57:55;4.63;;;2.20;;
15385;SDS011;7791;47.246;9.648;2022-11-24T02:00:26;3.70;;;2.37;;
15385;SDS011;7791;47.246;9.648;2022-11-24T02:02:53;4.87;;;2.30;;
15385;SDS011;7791;47.246;9.648;2022-11-24T02:05:20;3.50;;;2.63;;
15385;SDS011;7791;47.246;9.648;2022-11-24T02:07:49;3.40;;;2.70;;
15385;SDS011;7791;47.246;9.648;2022-11-24T02:10:17;5.27;;;2.50;;
15385;SDS011;7791;47.246;9.648;2022-11-24T02:12:45;3.50;;;2.47;;
15385;SDS011;7791;47.246;9.648;2022-11-24T02:15:14;4.03;;;2.30;;
15385;SDS011;7791;47.246;9.648;2022-11-24T02:17:40;5.87;;;2.10;;
15385;SDS011;7791;47.246;9.648;2022-11-24T02:20:10;3.27;;;1.23;;
15385;SDS011;7791;47.246;9.648;2022-11-24T02:22:46;5.43;;;1.93;;
15385;SDS011;7791;47.246;9.648;2022-11-24T02:25:22;3.20;;;1.40;;
15385;SDS011;7791;47.246;9.648;2022-11-24T02:27:56;3.30;;;1.40;;
15385;SDS011;7791;47.246;9.648;2022-11-24T02:30:24;3.50;;;1.80;;
15385;SDS011;7791;47.246;9.648;2022-11-24T02:32:50;6.17;;;2.60;;
15385;SDS011;7791;47.246;9.648;2022-11-24T02:35:17;4.17;;;2.77;;
15385;SDS011;7791;47.246;9.648;2022-11-24T02:37:43;5.70;;;3.30;;
15385;SDS011;7791;47.246;9.648;2022-11-24T02:40:10;4.57;;;3.70;;
15385;SDS011;7791;47.246;9.648;2022-11-24T02:42:39;5.90;;;4.30;;
15385;SDS011;7791;47.246;9.648;2022-11-24T02:45:09;4.73;;;2.90;;
15385;SDS011;7791;47.246;9.648;2022-11-24T02:47:39;6.27;;;3.20;;
15385;SDS011;7791;47.246;9.648;2022-11-24T02:50:11;6.43;;;3.57;;
15385;SDS011;7791;47.246;9.648;2022-11-24T02:53:00;5.07;;;3.20;;
15385;SDS011;7791;47.246;9.648;2022-11-24T02:55:31;4.77;;;3.10;;
15385;SDS011;7791;47.246;9.648;2022-11-24T02:57:57;5.70;;;3.23;;
15385;SDS011;7791;47.246;9.648;2022-11-24T03:00:24;5.80;;;3.43;;
15385;SDS011;7791;47.246;9.648;2022-11-24T03:02:50;6.30;;;4.43;;
15385;SDS011;7791;47.246;9.648;2022-11-24T03:05:17;7.70;;;5.67;;
15385;SDS011;7791;47.246;9.648;2022-11-24T03:07:46;7.03;;;5.13;;
15385;SDS011;7791;47.246;9.648;2022-11-24T03:10:12;8.80;;;5.63;;
15385;SDS011;7791;47.246;9.648;2022-11-24T03:12:40;8.03;;;5.27;;
15385;SDS011;7791;47.246;9.648;2022-11-24T03:15:11;7.67;;;4.97;;
15385;SDS011;7791;47.246;9.648;2022-11-24T03:17:40;6.20;;;4.83;;
15385;SDS011;7791;47.246;9.648;2022-11-24T03:20:06;7.00;;;5.17;;
15385;SDS011;7791;47.246;9.648;2022-11-24T03:22:36;6.83;;;4.93;;
15385;SDS011;7791;47.246;9.648;2022-11-24T03:25:03;5.43;;;4.13;;
15385;SDS011;7791;47.246;9.648;2022-11-24T03:27:29;4.30;;;2.97;;
15385;SDS011;7791;47.246;9.648;2022-11-24T03:29:56;5.27;;;2.70;;
15385;SDS011;7791;47.246;9.648;2022-11-24T03:32:23;5.20;;;2.33;;
15385;SDS011;7791;47.246;9.648;2022-11-24T03:34:51;4.50;;;2.37;;
15385;SDS011;7791;47.246;9.648;2022-11-24T03:37:18;3.43;;;2.13;;
15385;SDS011;7791;47.246;9.648;2022-11-24T03:39:49;5.50;;;2.13;;
15385;SDS011;7791;47.246;9.648;2022-11-24T03:42:20;5.37;;;2.53;;
15385;SDS011;7791;47.246;9.648;2022-11-24T03:44:49;4.03;;;2.30;;
15385;SDS011;7791;47.246;9.648;2022-11-24T03:47:15;4.70;;;2.07;;
15385;SDS011;7791;47.246;9.648;2022-11-24T03:49:41;4.20;;;1.60;;
15385;SDS011;7791;47.246;9.648;2022-11-24T03:52:09;2.63;;;1.50;;
15385;SDS011;7791;47.246;9.648;2022-11-24T03:54:35;5.50;;;2.07;;
15385;SDS011;7791;47.246;9.648;2022-11-24T03:57:01;2.90;;;1.30;;
15385;SDS011;7791;47.246;9.648;2022-11-24T03:59:27;4.20;;;1.63;;
15385;SDS011;7791;47.246;9.648;2022-11-24T04:01:52;4.03;;;1.50;;
15385;SDS011;7791;47.246;9.648;2022-11-24T04:04:19;5.70;;;2.10;;
15385;SDS011;7791;47.246;9.648;2022-11-24T04:06:45;3.70;;;1.90;;
15385;SDS011;7791;47.246;9.648;2022-11-24T04:09:13;3.87;;;1.83;;
15385;SDS011;7791;47.246;9.648;2022-11-24T04:11:39;5.83;;;2.27;;
15385;SDS011;7791;47.246;9.648;2022-11-24T04:14:06;3.27;;;1.90;;
15385;SDS011;7791;47.246;9.648;2022-11-24T04:16:32;2.20;;;1.70;;
15385;SDS011;7791;47.246;9.648;2022-11-24T04:18:59;4.70;;;2.40;;
15385;SDS011;7791;47.246;9.648;2022-11-24T04:21:25;5.43;;;3.10;;
15385;SDS011;7791;47.246;9.648;2022-11-24T04:23:51;4.60;;;2.70;;
15385;SDS011;7791;47.246;9.648;2022-11-24T04:29:10;4.53;;;2.90;;
15385;SDS011;7791;47.246;9.648;2022-11-24T04:31:35;5.50;;;3.00;;
15385;SDS011;7791;47.246;9.648;2022-11-24T04:34:01;7.33;;;3.07;;
15385;SDS011;7791;47.246;9.648;2022-11-24T04:36:28;6.43;;;3.40;;
15385;SDS011;7791;47.246;9.648;2022-11-24T04:38:57;5.27;;;3.30;;
15385;SDS011;7791;47.246;9.648;2022-11-24T04:41:23;4.40;;;3.13;;
15385;SDS011;7791;47.246;9.648;2022-11-24T04:43:51;3.30;;;2.40;;
15385;SDS011;7791;47.246;9.648;2022-11-24T04:46:20;5.33;;;2.50;;
15385;SDS011;7791;47.246;9.648;2022-11-24T04:48:47;6.77;;;2.43;;
15385;SDS011;7791;47.246;9.648;2022-11-24T04:51:13;3.03;;;2.47;;
15385;SDS011;7791;47.246;9.648;2022-11-24T04:53:41;4.77;;;2.63;;
15385;SDS011;7791;47.246;9.648;2022-11-24T04:56:08;8.03;;;2.33;;
15385;SDS011;7791;47.246;9.648;2022-11-24T04:58:47;3.80;;;2.13;;
15385;SDS011;7791;47.246;9.648;2022-11-24T05:01:19;3.97;;;2.47;;
15385;SDS011;7791;47.246;9.648;2022-11-24T05:03:47;5.13;;;2.37;;
15385;SDS011;7791;47.246;9.648;2022-11-24T05:06:14;5.33;;;3.00;;
15385;SDS011;7791;47.246;9.648;2022-11-24T05:08:40;4.83;;;2.80;;
15385;SDS011;7791;47.246;9.648;2022-11-24T05:11:06;6.77;;;4.00;;
15385;SDS011;7791;47.246;9.648;2022-11-24T05:13:32;7.87;;;4.00;;
15385;SDS011;7791;47.246;9.648;2022-11-24T05:16:01;5.13;;;3.63;;
15385;SDS011;7791;47.246;9.648;2022-11-24T05:18:28;4.63;;;3.00;;
15385;SDS011;7791;47.246;9.648;2022-11-24T05:20:56;4.50;;;2.87;;
15385;SDS011;7791;47.246;9.648;2022-11-24T05:23:24;5.03;;;2.90;;
15385;SDS011;7791;47.246;9.648;2022-11-24T05:25:58;5.93;;;2.37;;
15385;SDS011;7791;47.246;9.648;2022-11-24T05:31:19;5.60;;;2.93;;
15385;SDS011;7791;47.246;9.648;2022-11-24T05:33:45;4.10;;;2.70;;
15385;SDS011;7791;47.246;9.648;2022-11-24T05:36:11;4.57;;;2.60;;
15385;SDS011;7791;47.246;9.648;2022-11-24T05:38:40;5.27;;;2.50;;
15385;SDS011;7791;47.246;9.648;2022-11-24T05:41:07;4.67;;;2.40;;
15385;SDS011;7791;47.246;9.648;2022-11-24T05:43:45;3.87;;;2.20;;
15385;SDS011;7791;47.246;9.648;2022-11-24T06:09:31;5.73;;;2.57;;
15385;SDS011;7791;47.246;9.648;2022-11-24T06:17:11;6.43;;;3.43;;
15385;SDS011;7791;47.246;9.648;2022-11-24T06:20:11;9.43;;;3.30;;
15385;SDS011;7791;47.246;9.648;2022-11-24T06:22:48;8.47;;;4.77;;
15385;SDS011;7791;47.246;9.648;2022-11-24T06:25:18;8.33;;;4.83;;
15385;SDS011;7791;47.246;9.648;2022-11-24T06:27:44;8.50;;;4.20;;
15385;SDS011;7791;47.246;9.648;2022-11-24T06:33:13;13.07;;;6.10;;
15385;SDS011;7791;47.246;9.648;2022-11-24T06:35:46;9.93;;;6.63;;
15385;SDS011;7791;47.246;9.648;2022-11-24T06:38:14;8.07;;;5.53;;
15385;SDS011;7791;47.246;9.648;2022-11-24T06:40:44;8.83;;;5.50;;
15385;SDS011;7791;47.246;9.648;2022-11-24T06:43:10;7.17;;;4.47;;
15385;SDS011;7791;47.246;9.648;2022-11-24T06:48:39;3.87;;;2.80;;
15385;SDS011;7791;47.246;9.648;2022-11-24T06:51:07;4.33;;;2.63;;
15385;SDS011;7791;47.246;9.648;2022-11-24T06:53:40;9.43;;;4.53;;
15385;SDS011;7791;47.246;9.648;2022-11-24T06:56:08;12.33;;;6.23;;
15385;SDS011;7791;47.246;9.648;2022-11-24T06:58:39;18.40;;;10.87;;
15385;SDS011;7791;47.246;9.648;2022-11-24T07:04:06;9.90;;;3.50;;
15385;SDS011;7791;47.246;9.648;2022-11-24T07:06:33;5.47;;;3.07;;
15385;SDS011;7791;47.246;9.648;2022-11-24T07:09:00;8.70;;;4.03;;
15385;SDS011;7791;47.246;9.648;2022-11-24T07:11:29;5.63;;;2.03;;
15385;SDS011;7791;47.246;9.648;2022-11-24T07:13:56;4.30;;;2.60;;
15385;SDS011;7791;47.246;9.648;2022-11-24T07:16:24;3.90;;;1.83;;
15385;SDS011;7791;47.246;9.648;2022-11-24T07:18:55;6.10;;;4.30;;
15385;SDS011;7791;47.246;9.648;2022-11-24T07:21:24;4.93;;;2.30;;
15385;SDS011;7791;47.246;9.648;2022-11-24T07:23:54;5.03;;;1.57;;
15385;SDS011;7791;47.246;9.648;2022-11-24T07:26:22;3.10;;;1.23;;
15385;SDS011;7791;47.246;9.648;2022-11-24T07:28:50;2.37;;;1.53;;
15385;SDS011;7791;47.246;9.648;2022-11-24T07:31:17;3.07;;;1.40;;
15385;SDS011;7791;47.246;9.648;2022-11-24T07:33:46;4.90;;;1.70;;
15385;SDS011;7791;47.246;9.648;2022-11-24T07:36:13;3.30;;;1.53;;
15385;SDS011;7791;47.246;9.648;2022-11-24T07:38:39;4.33;;;1.93;;
15385;SDS011;7791;47.246;9.648;2022-11-24T07:41:05;7.40;;;2.30;;
15385;SDS011;7791;47.246;9.648;2022-11-24T07:43:33;7.03;;;2.50;;
15385;SDS011;7791;47.246;9.648;2022-11-24T07:48:58;4.17;;;2.20;;
15385;SDS011;7791;47.246;9.648;2022-11-24T07:51:24;4.90;;;2.40;;
15385;SDS011;7791;47.246;9.648;2022-11-24T07:53:49;6.10;;;2.30;;
15385;SDS011;7791;47.246;9.648;2022-11-24T07:56:15;3.90;;;2.30;;
15385;SDS011;7791;47.246;9.648;2022-11-24T07:58:42;10.00;;;3.10;;
15385;SDS011;7791;47.246;9.648;2022-11-24T08:03:54;6.90;;;2.67;;
15385;SDS011;7791;47.246;9.648;2022-11-24T08:06:20;4.70;;;2.40;;
15385;SDS011;7791;47.246;9.648;2022-11-24T08:08:46;4.77;;;2.40;;
15385;SDS011;7791;47.246;9.648;2022-11-24T08:11:13;3.73;;;2.20;;
15385;SDS011;7791;47.246;9.648;2022-11-24T08:13:41;6.27;;;2.30;;
15385;SDS011;7791;47.246;9.648;2022-11-24T08:16:08;9.07;;;2.83;;
15385;SDS011;7791;47.246;9.648;2022-11-24T08:24:24;5.07;;;2.17;;
15385;SDS011;7791;47.246;9.648;2022-11-24T08:26:52;4.43;;;2.63;;
15385;SDS011;7791;47.246;9.648;2022-11-24T08:29:20;5.87;;;2.50;;
15385;SDS011;7791;47.246;9.648;2022-11-24T08:31:51;5.00;;;2.63;;
15385;SDS011;7791;47.246;9.648;2022-11-24T08:34:18;4.87;;;2.17;;
15385;SDS011;7791;47.246;9.648;2022-11-24T08:36:43;3.43;;;2.00;;
15385;SDS011;7791;47.246;9.648;2022-11-24T08:39:11;3.80;;;1.87;;
15385;SDS011;7791;47.246;9.648;2022-11-24T08:41:37;4.80;;;2.00;;
15385;SDS011;7791;47.246;9.648;2022-11-24T08:44:02;6.03;;;2.07;;
15385;SDS011;7791;47.246;9.648;2022-11-24T08:46:29;3.83;;;1.70;;
15385;SDS011;7791;47.246;9.648;2022-11-24T08:48:55;4.23;;;1.80;;
15385;SDS011;7791;47.246;9.648;2022-11-24T08:51:22;4.17;;;1.57;;
15385;SDS011;7791;47.246;9.648;2022-11-24T08:53:52;6.80;;;1.80;;
15385;SDS011;7791;47.246;9.648;2022-11-24T08:56:20;6.57;;;1.93;;
15385;SDS011;7791;47.246;9.648;2022-11-24T08:58:47;4.17;;;1.97;;
15385;SDS011;7791;47.246;9.648;2022-11-24T09:01:18;5.80;;;2.03;;
15385;SDS011;7791;47.246;9.648;2022-11-24T09:03:45;6.47;;;2.57;;
15385;SDS011;7791;47.246;9.648;2022-11-24T09:06:17;4.67;;;2.23;;
15385;SDS011;7791;47.246;9.648;2022-11-24T09:08:44;7.13;;;2.20;;
15385;SDS011;7791;47.246;9.648;2022-11-24T09:11:10;8.37;;;2.60;;
15385;SDS011;7791;47.246;9.648;2022-11-24T09:13:39;3.93;;;2.30;;
15385;SDS011;7791;47.246;9.648;2022-11-24T09:16:07;4.67;;;2.47;;
15385;SDS011;7791;47.246;9.648;2022-11-24T09:18:44;7.17;;;2.47;;
15385;SDS011;7791;47.246;9.648;2022-11-24T09:21:11;5.23;;;2.30;;
15385;SDS011;7791;47.246;9.648;2022-11-24T09:23:41;6.90;;;2.70;;
15385;SDS011;7791;47.246;9.648;2022-11-24T09:26:10;6.23;;;3.77;;
15385;SDS011;7791;47.246;9.648;2022-11-24T09:28:40;5.73;;;2.63;;
15385;SDS011;7791;47.246;9.648;2022-11-24T09:31:07;8.13;;;3.80;;
15385;SDS011;7791;47.246;9.648;2022-11-24T09:36:26;5.30;;;2.73;;
15385;SDS011;7791;47.246;9.648;2022-11-24T09:38:52;6.97;;;2.97;;
15385;SDS011;7791;47.246;9.648;2022-11-24T09:41:35;5.17;;;3.23;;
15385;SDS011;7791;47.246;9.648;2022-11-24T09:44:09;5.60;;;3.10;;
15385;SDS011;7791;47.246;9.648;2022-11-24T09:46:52;6.87;;;3.20;;
15385;SDS011;7791;47.246;9.648;2022-11-24T09:49:29;7.73;;;3.50;;
15385;SDS011;7791;47.246;9.648;2022-11-24T09:54:51;8.33;;;3.60;;
15385;SDS011;7791;47.246;9.648;2022-11-24T09:57:28;10.33;;;3.83;;
15385;SDS011;7791;47.246;9.648;2022-11-24T10:00:06;6.50;;;3.80;;
15385;SDS011;7791;47.246;9.648;2022-11-24T10:02:37;8.10;;;4.00;;
15385;SDS011;7791;47.246;9.648;2022-11-24T10:05:03;10.70;;;4.40;;
15385;SDS011;7791;47.246;9.648;2022-11-24T10:07:32;7.27;;;4.23;;
15385;SDS011;7791;47.246;9.648;2022-11-24T10:10:08;12.80;;;4.60;;
15385;SDS011;7791;47.246;9.648;2022-11-24T10:12:42;7.63;;;4.03;;
15385;SDS011;7791;47.246;9.648;2022-11-24T10:15:22;6.23;;;3.30;;
15385;SDS011;7791;47.246;9.648;2022-11-24T10:24:01;7.47;;;3.63;;
15385;SDS011;7791;47.246;9.648;2022-11-24T10:26:44;10.33;;;3.87;;
15385;SDS011;7791;47.246;9.648;2022-11-24T10:29:18;7.80;;;3.70;;
15385;SDS011;7791;47.246;9.648;2022-11-24T10:31:52;11.13;;;4.50;;
15385;SDS011;7791;47.246;9.648;2022-11-24T10:34:21;12.10;;;4.27;;
15385;SDS011;7791;47.246;9.648;2022-11-24T10:36:53;7.03;;;3.73;;
15385;SDS011;7791;47.246;9.648;2022-11-24T10:39:27;8.07;;;3.93;;
15385;SDS011;7791;47.246;9.648;2022-11-24T10:41:57;9.17;;;4.33;;
15385;SDS011;7791;47.246;9.648;2022-11-24T10:44:28;13.13;;;6.30;;
15385;SDS011;7791;47.246;9.648;2022-11-24T10:46:55;12.77;;;6.07;;
15385;SDS011;7791;47.246;9.648;2022-11-24T10:49:24;5.93;;;3.53;;
15385;SDS011;7791;47.246;9.648;2022-11-24T10:55:03;10.83;;;5.10;;
15385;SDS011;7791;47.246;9.648;2022-11-24T10:57:31;10.47;;;5.40;;
15385;SDS011;7791;47.246;9.648;2022-11-24T10:59:58;22.83;;;9.63;;
15385;SDS011;7791;47.246;9.648;2022-11-24T11:02:31;13.37;;;5.93;;
15385;SDS011;7791;47.246;9.648;2022-11-24T11:08:20;8.17;;;4.07;;
15385;SDS011;7791;47.246;9.648;2022-11-24T11:10:51;6.47;;;4.00;;
15385;SDS011;7791;47.246;9.648;2022-11-24T11:13:36;8.40;;;3.83;;
15385;SDS011;7791;47.246;9.648;2022-11-24T11:16:11;8.57;;;3.30;;
15385;SDS011;7791;47.246;9.648;2022-11-24T11:18:50;8.13;;;2.93;;
15385;SDS011;7791;47.246;9.648;2022-11-24T11:27:07;3.87;;;1.70;;
15385;SDS011;7791;47.246;9.648;2022-11-24T11:29:44;6.33;;;2.00;;
15385;SDS011;7791;47.246;9.648;2022-11-24T11:32:15;8.03;;;3.20;;
15385;SDS011;7791;47.246;9.648;2022-11-24T11:34:45;17.40;;;7.70;;
15385;SDS011;7791;47.246;9.648;2022-11-24T11:37:14;7.63;;;4.60;;
15385;SDS011;7791;47.246;9.648;2022-11-24T11:39:42;5.80;;;3.27;;
15385;SDS011;7791;47.246;9.648;2022-11-24T11:42:13;14.87;;;5.70;;
15385;SDS011;7791;47.246;9.648;2022-11-24T11:44:43;8.00;;;3.90;;
15385;SDS011;7791;47.246;9.648;2022-11-24T11:47:16;6.93;;;3.20;;
15385;SDS011;7791;47.246;9.648;2022-11-24T11:49:48;5.27;;;2.20;;
15385;SDS011;7791;47.246;9.648;2022-11-24T11:52:22;4.93;;;2.77;;
15385;SDS011;7791;47.246;9.648;2022-11-24T11:55:25;10.13;;;4.07;;
15385;SDS011;7791;47.246;9.648;2022-11-24T11:58:00;5.50;;;2.03;;
15385;SDS011;7791;47.246;9.648;2022-11-24T12:00:43;8.97;;;3.23;;
15385;SDS011;7791;47.246;9.648;2022-11-24T12:03:24;7.70;;;3.20;;
15385;SDS011;7791;47.246;9.648;2022-11-24T12:06:07;6.03;;;3.77;;
15385;SDS011;7791;47.246;9.648;2022-11-24T12:11:45;4.60;;;2.27;;
15385;SDS011;7791;47.246;9.648;2022-11-24T12:14:25;6.77;;;4.17;;
15385;SDS011;7791;47.246;9.648;2022-11-24T12:16:59;5.03;;;2.33;;
15385;SDS011;7791;47.246;9.648;2022-11-24T12:19:40;5.10;;;3.30;;
15385;SDS011;7791;47.246;9.648;2022-11-24T12:22:19;6.33;;;3.57;;
15385;SDS011;7791;47.246;9.648;2022-11-24T12:25:01;7.03;;;2.80;;
15385;SDS011;7791;47.246;9.648;2022-11-24T12:27:46;4.93;;;2.20;;
15385;SDS011;7791;47.246;9.648;2022-11-24T12:30:18;7.93;;;2.47;;
15385;SDS011;7791;47.246;9.648;2022-11-24T12:35:36;5.40;;;3.20;;
15385;SDS011;7791;47.246;9.648;2022-11-24T12:38:20;6.30;;;2.90;;
15385;SDS011;7791;47.246;9.648;2022-11-24T12:41:00;4.80;;;2.87;;
15385;SDS011;7791;47.246;9.648;2022-11-24T12:43:49;6.13;;;2.93;;
15385;SDS011;7791;47.246;9.648;2022-11-24T12:46:16;7.33;;;2.77;;
15385;SDS011;7791;47.246;9.648;2022-11-24T12:48:49;7.77;;;3.07;;
15385;SDS011;7791;47.246;9.648;2022-11-24T12:51:24;6.77;;;2.67;;
15385;SDS011;7791;47.246;9.648;2022-11-24T12:53:58;4.47;;;2.23;;
15385;SDS011;7791;47.246;9.648;2022-11-24T12:56:34;3.93;;;2.00;;
15385;SDS011;7791;47.246;9.648;2022-11-24T12:59:10;4.47;;;2.00;;
15385;SDS011;7791;47.246;9.648;2022-11-24T13:01:45;5.87;;;2.20;;
15385;SDS011;7791;47.246;9.648;2022-11-24T13:04:28;9.30;;;2.57;;
15385;SDS011;7791;47.246;9.648;2022-11-24T13:07:00;7.33;;;2.80;;
15385;SDS011;7791;47.246;9.648;2022-11-24T13:09:31;6.33;;;2.70;;
15385;SDS011;7791;47.246;9.648;2022-11-24T13:12:09;5.77;;;2.83;;
15385;SDS011;7791;47.246;9.648;2022-11-24T13:14:36;7.97;;;2.73;;
15385;SDS011;7791;47.246;9.648;2022-11-24T13:17:21;9.40;;;2.90;;
15385;SDS011;7791;47.246;9.648;2022-11-24T13:19:51;4.87;;;2.60;;
15385;SDS011;7791;47.246;9.648;2022-11-24T13:22:21;7.50;;;2.67;;
15385;SDS011;7791;47.246;9.648;2022-11-24T13:25:10;6.50;;;2.80;;
15385;SDS011;7791;47.246;9.648;2022-11-24T13:27:44;6.47;;;3.20;;
15385;SDS011;7791;47.246;9.648;2022-11-24T13:33:31;9.57;;;3.03;;
15385;SDS011;7791;47.246;9.648;2022-11-24T13:39:17;5.37;;;2.13;;
15385;SDS011;7791;47.246;9.648;2022-11-24T13:44:50;5.47;;;2.60;;
15385;SDS011;7791;47.246;9.648;2022-11-24T13:47:39;10.10;;;2.30;;
15385;SDS011;7791;47.246;9.648;2022-11-24T13:50:08;7.23;;;3.20;;
15385;SDS011;7791;47.246;9.648;2022-11-24T13:52:46;5.13;;;3.53;;
15385;SDS011;7791;47.246;9.648;2022-11-24T13:55:31;9.23;;;4.77;;
15385;SDS011;7791;47.246;9.648;2022-11-24T13:58:04;5.70;;;2.77;;
15385;SDS011;7791;47.246;9.648;2022-11-24T14:00:59;3.53;;;1.70;;
15385;SDS011;7791;47.246;9.648;2022-11-24T14:03:35;7.43;;;2.40;;
15385;SDS011;7791;47.246;9.648;2022-11-24T14:06:12;6.50;;;2.27;;
15385;SDS011;7791;47.246;9.648;2022-11-24T14:08:41;6.50;;;2.93;;
15385;SDS011;7791;47.246;9.648;2022-11-24T14:11:13;4.90;;;3.20;;
15385;SDS011;7791;47.246;9.648;2022-11-24T14:13:42;7.13;;;2.50;;
15385;SDS011;7791;47.246;9.648;2022-11-24T14:16:13;8.27;;;3.30;;
15385;SDS011;7791;47.246;9.648;2022-11-24T14:18:44;5.93;;;2.53;;
15385;SDS011;7791;47.246;9.648;2022-11-24T14:21:23;6.77;;;3.50;;
15385;SDS011;7791;47.246;9.648;2022-11-24T14:23:52;10.23;;;3.70;;
15385;SDS011;7791;47.246;9.648;2022-11-24T14:29:22;8.63;;;4.20;;
15385;SDS011;7791;47.246;9.648;2022-11-24T14:31:51;16.10;;;8.63;;
15385;SDS011;7791;47.246;9.648;2022-11-24T14:34:18;14.90;;;7.13;;
15385;SDS011;7791;47.246;9.648;2022-11-24T14:36:46;9.63;;;4.30;;
15385;SDS011;7791;47.246;9.648;2022-11-24T14:39:13;8.77;;;4.47;;
15385;SDS011;7791;47.246;9.648;2022-11-24T14:41:40;12.50;;;5.10;;
15385;SDS011;7791;47.246;9.648;2022-11-24T14:44:14;8.83;;;5.53;;
15385;SDS011;7791;47.246;9.648;2022-11-24T14:46:46;9.37;;;5.10;;
15385;SDS011;7791;47.246;9.648;2022-11-24T14:49:19;8.33;;;4.90;;
15385;SDS011;7791;47.246;9.648;2022-11-24T14:51:48;10.87;;;5.03;;
15385;SDS011;7791;47.246;9.648;2022-11-24T14:54:24;10.23;;;5.30;;
15385;SDS011;7791;47.246;9.648;2022-11-24T14:57:20;7.13;;;4.27;;
15385;SDS011;7791;47.246;9.648;2022-11-24T15:00:02;7.50;;;4.20;;
15385;SDS011;7791;47.246;9.648;2022-11-24T15:02:38;8.27;;;4.90;;
15385;SDS011;7791;47.246;9.648;2022-11-24T15:05:06;7.97;;;4.60;;
15385;SDS011;7791;47.246;9.648;2022-11-24T15:07:31;12.53;;;6.33;;
15385;SDS011;7791;47.246;9.648;2022-11-24T15:10:02;9.43;;;4.40;;
15385;SDS011;7791;47.246;9.648;2022-11-24T15:12:35;9.93;;;4.70;;
15385;SDS011;7791;47.246;9.648;2022-11-24T15:15:05;10.27;;;5.20;;
15385;SDS011;7791;47.246;9.648;2022-11-24T15:17:45;19.27;;;7.77;;
15385;SDS011;7791;47.246;9.648;2022-11-24T15:20:16;11.27;;;6.03;;
15385;SDS011;7791;47.246;9.648;2022-11-24T15:22:47;22.20;;;17.17;;
15385;SDS011;7791;47.246;9.648;2022-11-24T15:28:18;9.30;;;5.97;;
15385;SDS011;7791;47.246;9.648;2022-11-24T15:30:47;12.53;;;7.10;;
15385;SDS011;7791;47.246;9.648;2022-11-24T15:33:16;15.83;;;8.27;;
15385;SDS011;7791;47.246;9.648;2022-11-24T15:35:43;27.47;;;12.20;;
15385;SDS011;7791;47.246;9.648;2022-11-24T15:38:10;31.07;;;14.03;;
15385;SDS011;7791;47.246;9.648;2022-11-24T15:40:37;22.90;;;12.20;;
15385;SDS011;7791;47.246;9.648;2022-11-24T15:43:05;19.40;;;9.13;;
15385;SDS011;7791;47.246;9.648;2022-11-24T15:45:54;11.03;;;6.70;;
15385;SDS011;7791;47.246;9.648;2022-11-24T15:48:24;11.67;;;6.67;;
15385;SDS011;7791;47.246;9.648;2022-11-24T15:50:53;18.50;;;7.43;;
15385;SDS011;7791;47.246;9.648;2022-11-24T15:53:20;8.63;;;6.10;;
15385;SDS011;7791;47.246;9.648;2022-11-24T15:55:48;12.27;;;7.20;;
15385;SDS011;7791;47.246;9.648;2022-11-24T15:58:15;11.20;;;5.53;;
15385;SDS011;7791;47.246;9.648;2022-11-24T16:00:42;9.40;;;5.27;;
15385;SDS011;7791;47.246;9.648;2022-11-24T16:03:11;8.50;;;4.63;;
15385;SDS011;7791;47.246;9.648;2022-11-24T16:05:42;12.30;;;5.50;;
15385;SDS011;7791;47.246;9.648;2022-11-24T16:08:11;7.30;;;4.83;;
15385;SDS011;7791;47.246;9.648;2022-11-24T16:10:39;7.83;;;4.53;;
15385;SDS011;7791;47.246;9.648;2022-11-24T16:13:06;8.40;;;4.10;;
15385;SDS011;7791;47.246;9.648;2022-11-24T16:15:33;8.73;;;4.03;;
15385;SDS011;7791;47.246;9.648;2022-11-24T16:18:02;7.20;;;4.40;;
15385;SDS011;7791;47.246;9.648;2022-11-24T16:20:35;7.13;;;4.93;;
15385;SDS011;7791;47.246;9.648;2022-11-24T16:23:08;8.53;;;4.00;;
15385;SDS011;7791;47.246;9.648;2022-11-24T16:25:37;9.50;;;4.43;;
15385;SDS011;7791;47.246;9.648;2022-11-24T16:28:04;7.70;;;5.43;;
15385;SDS011;7791;47.246;9.648;2022-11-24T16:36:37;7.23;;;4.20;;
15385;SDS011;7791;47.246;9.648;2022-11-24T16:39:05;8.10;;;3.87;;
15385;SDS011;7791;47.246;9.648;2022-11-24T16:41:32;8.77;;;5.73;;
15385;SDS011;7791;47.246;9.648;2022-11-24T16:43:58;9.20;;;5.07;;
15385;SDS011;7791;47.246;9.648;2022-11-24T16:46:24;4.03;;;2.90;;
15385;SDS011;7791;47.246;9.648;2022-11-24T16:48:51;8.50;;;3.77;;
15385;SDS011;7791;47.246;9.648;2022-11-24T16:51:18;4.63;;;2.67;;
15385;SDS011;7791;47.246;9.648;2022-11-24T16:53:48;6.37;;;2.93;;
15385;SDS011;7791;47.246;9.648;2022-11-24T16:56:23;4.33;;;2.90;;
15385;SDS011;7791;47.246;9.648;2022-11-24T16:58:50;7.27;;;3.17;;
15385;SDS011;7791;47.246;9.648;2022-11-24T17:01:34;6.13;;;3.00;;
15385;SDS011;7791;47.246;9.648;2022-11-24T17:04:02;4.97;;;3.30;;
15385;SDS011;7791;47.246;9.648;2022-11-24T17:06:28;4.50;;;2.50;;
15385;SDS011;7791;47.246;9.648;2022-11-24T17:08:57;5.07;;;3.07;;